createdAt,value
2018-08-24T00:00:15.552Z,22.52
2018-08-24T00:01:15.594Z,22.42
2018-08-24T00:02:15.603Z,22.49
2018-08-24T00:03:15.636Z,22.45
2018-08-24T00:04:15.658Z,22.46
2018-08-24T00:05:15.682Z,22.51
2018-08-24T00:06:15.708Z,22.44
2018-08-24T00:07:15.829Z,22.48
2018-08-24T00:08:15.762Z,22.42
2018-08-24T00:09:15.788Z,22.44
2018-08-24T00:10:15.817Z,22.39
2018-08-24T00:11:15.842Z,22.36
2018-08-24T00:12:15.875Z,22.44
2018-08-24T00:13:15.893Z,22.49
2018-08-24T00:14:15.917Z,22.46
2018-08-24T00:15:15.942Z,22.51
2018-08-24T00:16:15.971Z,22.52
2018-08-24T00:17:15.994Z,22.57
2018-08-24T00:18:16.024Z,22.57
2018-08-24T00:19:16.050Z,22.63
2018-08-24T00:20:16.082Z,22.57
2018-08-24T00:21:16.098Z,22.59
2018-08-24T00:22:16.127Z,22.60
2018-08-24T00:23:16.149Z,22.57
2018-08-24T00:24:16.177Z,22.52
2018-08-24T00:25:16.208Z,22.51
2018-08-24T00:26:16.227Z,22.54
2018-08-24T00:27:16.255Z,22.52
2018-08-24T00:28:16.278Z,22.56
2018-08-24T00:29:16.310Z,22.54
2018-08-24T00:30:16.343Z,22.57
2018-08-24T00:31:16.356Z,22.61
2018-08-24T00:32:16.387Z,22.59
2018-08-24T00:33:16.413Z,22.54
2018-08-24T00:34:16.446Z,22.59
2018-08-24T00:35:16.464Z,22.64
2018-08-24T00:36:16.493Z,22.64
2018-08-24T00:37:16.521Z,22.63
2018-08-24T00:38:16.540Z,22.54
2018-08-24T00:39:16.566Z,22.59
2018-08-24T00:40:16.592Z,22.52
2018-08-24T00:41:16.621Z,22.46
2018-08-24T00:42:16.646Z,22.46
2018-08-24T00:43:16.672Z,22.42
2018-08-24T00:44:16.698Z,22.39
2018-08-24T00:45:16.724Z,22.31
2018-08-24T00:46:16.747Z,22.31
2018-08-24T00:47:16.780Z,22.29
2018-08-24T00:48:16.799Z,22.31
2018-08-24T00:49:16.829Z,22.39
2018-08-24T00:50:16.852Z,22.38
2018-08-24T00:51:16.876Z,22.29
2018-08-24T00:52:16.910Z,22.29
2018-08-24T00:53:16.926Z,22.20
2018-08-24T00:54:16.952Z,22.24
2018-08-24T00:55:16.984Z,22.23
2018-08-24T00:56:17.005Z,22.19
2018-08-24T00:57:17.035Z,22.12
2018-08-24T00:58:17.056Z,22.15
2018-08-24T00:59:17.089Z,22.24
2018-08-24T01:00:17.116Z,22.15
2018-08-24T01:01:17.136Z,22.11
2018-08-24T01:02:17.166Z,22.29
2018-08-24T01:03:17.191Z,22.17
2018-08-24T01:04:17.212Z,22.27
2018-08-24T01:05:17.238Z,22.30
2018-08-24T01:06:17.268Z,22.24
2018-08-24T01:07:17.286Z,22.24
2018-08-24T01:08:17.316Z,22.20
2018-08-24T01:09:17.356Z,22.26
2018-08-24T01:10:17.366Z,22.31
2018-08-24T01:11:17.388Z,22.27
2018-08-24T01:12:17.428Z,22.27
2018-08-24T01:13:17.446Z,22.26
2018-08-24T01:14:17.472Z,22.26
2018-08-24T01:15:17.497Z,22.14
2018-08-24T01:16:17.526Z,22.14
2018-08-24T01:17:17.554Z,22.15
2018-08-24T01:18:17.576Z,22.17
2018-08-24T01:19:17.598Z,22.24
2018-08-24T01:20:17.628Z,22.12
2018-08-24T01:21:17.650Z,22.05
2018-08-24T01:22:17.680Z,22.09
2018-08-24T01:23:17.705Z,22.12
2018-08-24T01:24:17.732Z,22.05
2018-08-24T01:25:17.762Z,22.01
2018-08-24T01:26:17.785Z,21.83
2018-08-24T01:27:17.812Z,21.93
2018-08-24T01:28:17.830Z,21.90
2018-08-24T01:29:17.864Z,21.99
2018-08-24T01:30:17.885Z,21.94
2018-08-24T01:31:17.922Z,22.02
2018-08-24T01:32:17.934Z,22.08
2018-08-24T01:33:17.959Z,22.06
2018-08-24T01:34:17.985Z,22.01
2018-08-24T01:35:18.010Z,22.02
2018-08-24T01:36:18.038Z,21.86
2018-08-24T01:37:18.072Z,21.91
2018-08-24T01:38:18.090Z,21.81
2018-08-24T01:39:18.118Z,21.77
2018-08-24T01:40:18.145Z,21.81
2018-08-24T01:41:18.170Z,21.77
2018-08-24T01:42:18.196Z,21.82
2018-08-24T01:43:18.216Z,21.81
2018-08-24T01:44:18.248Z,21.83
2018-08-24T01:45:18.266Z,21.79
2018-08-24T01:46:18.297Z,21.75
2018-08-24T01:47:18.318Z,21.74
2018-08-24T01:48:18.346Z,21.64
2018-08-24T01:49:18.372Z,21.63
2018-08-24T01:50:18.401Z,21.63
2018-08-24T01:51:18.427Z,21.63
2018-08-24T01:52:18.443Z,21.61
2018-08-24T01:53:18.480Z,21.58
2018-08-24T01:54:18.496Z,21.63
2018-08-24T01:55:18.522Z,21.52
2018-08-24T01:56:18.547Z,21.48
2018-08-24T01:57:18.582Z,21.46
2018-08-24T01:58:18.607Z,21.53
2018-08-24T01:59:18.627Z,21.61
2018-08-24T02:00:18.649Z,21.52
2018-08-24T02:01:18.685Z,21.58
2018-08-24T02:02:18.703Z,21.61
2018-08-24T02:03:18.731Z,21.61
2018-08-24T02:04:18.756Z,21.58
2018-08-24T02:05:18.784Z,21.61
2018-08-24T02:06:18.813Z,21.59
2018-08-24T02:07:18.829Z,21.61
2018-08-24T02:08:18.862Z,21.59
2018-08-24T02:09:18.883Z,21.53
2018-08-24T02:10:18.911Z,21.51
2018-08-24T02:11:18.935Z,21.49
2018-08-24T02:12:18.961Z,21.55
2018-08-24T02:13:18.988Z,21.49
2018-08-24T02:14:19.019Z,21.49
2018-08-24T02:15:19.031Z,21.48
2018-08-24T02:16:19.055Z,21.49
2018-08-24T02:17:19.093Z,21.37
2018-08-24T02:18:19.109Z,21.37
2018-08-24T02:19:19.135Z,21.42
2018-08-24T02:20:19.159Z,21.36
2018-08-24T02:21:19.188Z,21.36
2018-08-24T02:22:19.209Z,21.27
2018-08-24T02:23:19.238Z,21.26
2018-08-24T02:24:19.259Z,21.13
2018-08-24T02:25:19.291Z,21.26
2018-08-24T02:26:19.309Z,21.18
2018-08-24T02:27:19.335Z,21.15
2018-08-24T02:28:19.365Z,21.06
2018-08-24T02:29:19.394Z,21.09
2018-08-24T02:30:19.411Z,21.09
2018-08-24T02:31:19.512Z,21.09
2018-08-24T02:32:19.467Z,21.15
2018-08-24T02:33:19.491Z,21.06
2018-08-24T02:34:19.515Z,21.13
2018-08-24T02:35:19.543Z,21.08
2018-08-24T02:36:19.563Z,21.05
2018-08-24T02:37:19.597Z,21.05
2018-08-24T02:38:19.619Z,21.03
2018-08-24T02:39:19.645Z,20.94
2018-08-24T02:40:19.667Z,21.03
2018-08-24T02:41:19.696Z,20.98
2018-08-24T02:42:19.727Z,20.97
2018-08-24T02:43:19.744Z,20.79
2018-08-24T02:44:19.767Z,20.64
2018-08-24T02:45:19.799Z,20.51
2018-08-24T02:46:19.821Z,20.35
2018-08-24T02:47:19.847Z,20.31
2018-08-24T02:48:19.867Z,20.17
2018-08-24T02:49:19.895Z,20.08
2018-08-24T02:50:19.912Z,20.04
2018-08-24T02:51:19.946Z,19.86
2018-08-24T02:52:19.969Z,19.72
2018-08-24T02:53:19.996Z,19.70
2018-08-24T02:54:20.011Z,19.64
2018-08-24T02:55:20.043Z,19.68
2018-08-24T02:56:20.061Z,19.62
2018-08-24T02:57:20.089Z,19.68
2018-08-24T02:58:20.113Z,19.55
2018-08-24T02:59:20.137Z,19.38
2018-08-24T03:00:20.161Z,19.39
2018-08-24T03:01:20.189Z,19.38
2018-08-24T03:02:20.212Z,19.32
2018-08-24T03:03:20.240Z,19.38
2018-08-24T03:04:20.267Z,19.35
2018-08-24T03:05:20.337Z,19.17
2018-08-24T03:06:20.305Z,19.25
2018-08-24T03:07:20.333Z,19.24
2018-08-24T03:08:20.364Z,19.27
2018-08-24T03:09:20.384Z,19.24
2018-08-24T03:10:20.401Z,19.32
2018-08-24T03:11:20.431Z,19.40
2018-08-24T03:12:20.449Z,19.40
2018-08-24T03:13:20.484Z,19.42
2018-08-24T03:14:20.501Z,19.45
2018-08-24T03:15:20.527Z,19.45
2018-08-24T03:16:20.579Z,19.43
2018-08-24T03:17:20.579Z,19.45
2018-08-24T03:18:20.597Z,19.52
2018-08-24T03:19:20.624Z,19.43
2018-08-24T03:20:20.651Z,19.47
2018-08-24T03:21:20.673Z,19.43
2018-08-24T03:22:20.701Z,19.32
2018-08-24T03:23:20.723Z,19.25
2018-08-24T03:24:20.741Z,19.35
2018-08-24T03:25:20.769Z,19.38
2018-08-24T03:26:20.792Z,19.39
2018-08-24T03:27:20.815Z,19.39
2018-08-24T03:28:20.845Z,19.42
2018-08-24T03:29:20.865Z,19.42
2018-08-24T03:30:20.889Z,19.39
2018-08-24T03:31:20.912Z,19.46
2018-08-24T03:32:20.939Z,19.35
2018-08-24T03:33:20.961Z,19.31
2018-08-24T03:34:20.989Z,19.32
2018-08-24T03:35:21.011Z,19.35
2018-08-24T03:36:21.033Z,19.35
2018-08-24T03:37:21.056Z,19.43
2018-08-24T03:38:21.082Z,19.32
2018-08-24T03:39:21.115Z,19.23
2018-08-24T03:40:21.130Z,19.24
2018-08-24T03:41:21.157Z,19.16
2018-08-24T03:42:21.183Z,19.17
2018-08-24T03:43:21.206Z,19.20
2018-08-24T03:44:21.233Z,19.13
2018-08-24T03:45:21.254Z,19.21
2018-08-24T03:46:21.281Z,19.15
2018-08-24T03:47:21.306Z,19.12
2018-08-24T03:48:21.326Z,19.09
2018-08-24T03:49:21.345Z,19.15
2018-08-24T03:50:21.372Z,19.09
2018-08-24T03:51:21.406Z,19.06
2018-08-24T03:52:21.434Z,19.06
2018-08-24T03:53:21.543Z,19.10
2018-08-24T03:54:21.472Z,19.07
2018-08-24T03:55:21.495Z,19.09
2018-08-24T03:56:21.521Z,19.20
2018-08-24T03:57:21.543Z,19.17
2018-08-24T03:58:21.575Z,19.10
2018-08-24T03:59:21.619Z,19.17
2018-08-24T04:00:21.625Z,19.12
2018-08-24T04:01:21.641Z,19.01
2018-08-24T04:02:21.671Z,18.83
2018-08-24T04:03:21.689Z,18.84
2018-08-24T04:04:21.714Z,18.84
2018-08-24T04:05:21.740Z,18.84
2018-08-24T04:06:21.765Z,18.83
2018-08-24T04:07:21.786Z,18.90
2018-08-24T04:08:21.810Z,18.97
2018-08-24T04:09:21.839Z,19.02
2018-08-24T04:10:21.861Z,18.93
2018-08-24T04:11:21.881Z,18.87
2018-08-24T04:12:21.911Z,18.94
2018-08-24T04:13:21.935Z,18.90
2018-08-24T04:14:21.952Z,18.87
2018-08-24T04:15:21.977Z,18.91
2018-08-24T04:16:22.007Z,18.83
2018-08-24T04:17:22.025Z,18.84
2018-08-24T04:18:22.047Z,18.89
2018-08-24T04:19:22.137Z,18.91
2018-08-24T04:20:22.102Z,18.91
2018-08-24T04:21:22.123Z,18.89
2018-08-24T04:22:22.151Z,18.91
2018-08-24T04:23:22.168Z,18.86
2018-08-24T04:24:22.193Z,18.86
2018-08-24T04:25:22.218Z,18.74
2018-08-24T04:26:22.243Z,18.72
2018-08-24T04:27:22.271Z,18.83
2018-08-24T04:28:22.293Z,18.72
2018-08-24T04:29:22.314Z,18.72
2018-08-24T04:30:22.339Z,18.72
2018-08-24T04:31:22.359Z,18.76
2018-08-24T04:32:22.414Z,18.76
2018-08-24T04:33:22.416Z,18.75
2018-08-24T04:34:22.440Z,18.76
2018-08-24T04:35:22.456Z,18.72
2018-08-24T04:36:22.488Z,18.76
2018-08-24T04:37:22.506Z,18.74
2018-08-24T04:38:22.534Z,18.69
2018-08-24T04:39:22.558Z,18.76
2018-08-24T04:40:22.791Z,18.71
2018-08-24T04:41:22.605Z,18.72
2018-08-24T04:42:22.626Z,18.69
2018-08-24T04:43:22.649Z,18.60
2018-08-24T04:44:22.678Z,18.59
2018-08-24T04:45:22.733Z,18.56
2018-08-24T04:46:22.720Z,18.56
2018-08-24T04:47:22.749Z,18.56
2018-08-24T04:48:22.779Z,18.57
2018-08-24T04:49:22.798Z,18.57
2018-08-24T04:50:22.814Z,18.56
2018-08-24T04:51:22.884Z,18.47
2018-08-24T04:52:22.878Z,18.47
2018-08-24T04:53:22.900Z,18.50
2018-08-24T04:54:22.918Z,18.49
2018-08-24T04:55:22.938Z,18.50
2018-08-24T04:56:22.962Z,18.50
2018-08-24T04:57:22.992Z,18.42
2018-08-24T04:58:23.062Z,18.34
2018-08-24T04:59:23.038Z,18.26
2018-08-24T05:00:23.064Z,18.28
2018-08-24T05:01:23.080Z,18.36
2018-08-24T05:02:23.106Z,18.41
2018-08-24T05:03:23.128Z,18.51
2018-08-24T05:04:23.154Z,18.44
2018-08-24T05:05:23.189Z,18.39
2018-08-24T05:06:23.204Z,18.38
2018-08-24T05:07:23.253Z,18.35
2018-08-24T05:08:23.250Z,18.25
2018-08-24T05:09:23.281Z,18.26
2018-08-24T05:10:23.300Z,18.21
2018-08-24T05:11:23.321Z,18.25
2018-08-24T05:12:23.350Z,18.21
2018-08-24T05:13:23.374Z,18.20
2018-08-24T05:14:23.395Z,18.20
2018-08-24T05:15:23.423Z,18.25
2018-08-24T05:16:23.440Z,18.34
2018-08-24T05:17:23.470Z,18.21
2018-08-24T05:18:23.486Z,18.16
2018-08-24T05:19:23.516Z,18.28
2018-08-24T05:20:23.538Z,18.25
2018-08-24T05:21:23.635Z,18.21
2018-08-24T05:22:23.582Z,18.20
2018-08-24T05:23:23.611Z,18.21
2018-08-24T05:24:23.634Z,18.25
2018-08-24T05:25:23.658Z,18.14
2018-08-24T05:26:23.687Z,18.16
2018-08-24T05:27:23.699Z,18.25
2018-08-24T05:28:23.726Z,18.20
2018-08-24T05:29:23.752Z,18.28
2018-08-24T05:30:23.774Z,18.17
2018-08-24T05:31:23.796Z,18.20
2018-08-24T05:32:23.830Z,18.13
2018-08-24T05:33:23.844Z,18.16
2018-08-24T05:34:23.870Z,18.07
2018-08-24T05:35:23.900Z,18.10
2018-08-24T05:36:23.916Z,18.09
2018-08-24T05:37:23.934Z,17.94
2018-08-24T05:38:23.963Z,17.99
2018-08-24T05:39:23.981Z,17.94
2018-08-24T05:40:24.009Z,17.95
2018-08-24T05:41:24.119Z,17.76
2018-08-24T05:42:24.062Z,17.76
2018-08-24T05:43:24.082Z,17.83
2018-08-24T05:44:24.106Z,17.81
2018-08-24T05:45:24.127Z,17.96
2018-08-24T05:46:24.156Z,18.05
2018-08-24T05:47:24.176Z,17.98
2018-08-24T05:48:24.200Z,18.05
2018-08-24T05:49:24.226Z,18.04
2018-08-24T05:50:24.249Z,17.92
2018-08-24T05:51:24.272Z,18.04
2018-08-24T05:52:24.295Z,17.83
2018-08-24T05:53:24.318Z,18.01
2018-08-24T05:54:24.344Z,18.04
2018-08-24T05:55:24.367Z,18.17
2018-08-24T05:56:24.399Z,18.31
2018-08-24T05:57:24.420Z,18.34
2018-08-24T05:58:24.437Z,18.31
2018-08-24T05:59:24.461Z,18.29
2018-08-24T06:00:24.492Z,18.29
2018-08-24T06:01:24.515Z,18.21
2018-08-24T06:02:24.531Z,18.38
2018-08-24T06:04:24.582Z,18.26
2018-08-24T06:05:24.604Z,18.21
2018-08-24T06:06:24.631Z,18.14
2018-08-24T06:07:24.652Z,18.16
2018-08-24T06:08:24.678Z,18.16
2018-08-24T06:09:24.706Z,18.29
2018-08-24T06:10:24.735Z,18.28
2018-08-24T06:11:24.760Z,18.21
2018-08-24T06:12:24.774Z,18.38
2018-08-24T06:13:24.798Z,18.29
2018-08-24T06:14:24.822Z,18.25
2018-08-24T06:15:24.848Z,18.26
2018-08-24T06:16:24.880Z,18.25
2018-08-24T06:17:24.889Z,18.20
2018-08-24T06:18:24.917Z,18.26
2018-08-24T06:19:24.944Z,18.28
2018-08-24T06:20:24.967Z,18.25
2018-08-24T06:21:24.986Z,18.35
2018-08-24T06:22:25.012Z,18.44
2018-08-24T06:23:25.037Z,18.31
2018-08-24T06:24:25.072Z,18.35
2018-08-24T06:25:25.081Z,18.38
2018-08-24T06:26:25.111Z,18.19
2018-08-24T06:27:25.131Z,18.31
2018-08-24T06:28:25.161Z,18.29
2018-08-24T06:29:25.178Z,18.39
2018-08-24T06:30:25.204Z,18.41
2018-08-24T06:31:25.229Z,18.41
2018-08-24T06:32:25.252Z,18.42
2018-08-24T06:33:25.281Z,18.51
2018-08-24T06:34:25.301Z,18.51
2018-08-24T06:35:25.327Z,18.56
2018-08-24T06:36:25.353Z,18.66
2018-08-24T06:37:25.377Z,18.64
2018-08-24T06:38:25.398Z,18.64
2018-08-24T06:39:25.422Z,18.68
2018-08-24T06:40:25.446Z,18.75
2018-08-24T06:41:25.474Z,18.86
2018-08-24T06:42:25.499Z,18.89
2018-08-24T06:43:25.529Z,18.90
2018-08-24T06:44:25.552Z,18.65
2018-08-24T06:45:25.569Z,18.47
2018-08-24T06:46:25.595Z,18.42
2018-08-24T06:47:25.659Z,18.36
2018-08-24T06:48:25.643Z,18.38
2018-08-24T06:49:25.676Z,18.38
2018-08-24T06:50:25.691Z,18.32
2018-08-24T06:51:25.718Z,18.34
2018-08-24T06:52:25.739Z,18.17
2018-08-24T06:53:25.792Z,18.26
2018-08-24T06:54:25.783Z,18.34
2018-08-24T06:55:25.811Z,18.31
2018-08-24T06:56:25.836Z,18.42
2018-08-24T06:57:25.862Z,18.39
2018-08-24T06:58:25.905Z,18.35
2018-08-24T06:59:25.910Z,18.42
2018-08-24T07:00:25.939Z,18.49
2018-08-24T07:01:25.957Z,18.34
2018-08-24T07:02:25.979Z,18.34
2018-08-24T07:03:26.019Z,18.39
2018-08-24T07:04:26.027Z,18.41
2018-08-24T07:05:26.057Z,18.38
2018-08-24T07:06:26.081Z,18.39
2018-08-24T07:07:26.108Z,18.32
2018-08-24T07:08:26.128Z,18.35
2018-08-24T07:09:26.153Z,18.28
2018-08-24T07:10:26.177Z,18.39
2018-08-24T07:11:26.206Z,18.35
2018-08-24T07:12:26.231Z,18.47
2018-08-24T07:13:26.269Z,18.57
2018-08-24T07:14:26.277Z,18.53
2018-08-24T07:15:26.295Z,18.62
2018-08-24T07:16:26.323Z,18.71
2018-08-24T07:17:26.352Z,18.64
2018-08-24T07:18:26.369Z,18.66
2018-08-24T07:19:26.397Z,18.65
2018-08-24T07:20:26.416Z,18.60
2018-08-24T07:21:26.444Z,18.46
2018-08-24T07:22:26.464Z,18.49
2018-08-24T07:23:26.496Z,18.44
2018-08-24T07:24:26.514Z,18.31
2018-08-24T07:25:26.549Z,18.38
2018-08-24T07:26:26.569Z,18.34
2018-08-24T07:27:26.589Z,18.41
2018-08-24T07:28:26.620Z,18.38
2018-08-24T07:29:26.644Z,18.54
2018-08-24T07:30:26.665Z,18.59
2018-08-24T07:31:26.693Z,18.69
2018-08-24T07:32:26.712Z,18.83
2018-08-24T07:33:26.733Z,18.71
2018-08-24T07:34:26.759Z,18.75
2018-08-24T07:35:26.783Z,18.75
2018-08-24T07:36:26.812Z,18.82
2018-08-24T07:37:26.836Z,18.64
2018-08-24T07:38:26.856Z,18.65
2018-08-24T07:39:26.881Z,18.75
2018-08-24T07:40:26.915Z,18.65
2018-08-24T07:41:26.970Z,18.66
2018-08-24T07:42:26.954Z,18.59
2018-08-24T07:43:26.986Z,18.68
2018-08-24T07:44:27.006Z,18.69
2018-08-24T07:45:27.034Z,18.65
2018-08-24T07:46:27.057Z,18.56
2018-08-24T07:47:27.083Z,18.56
2018-08-24T07:48:27.106Z,18.69
2018-08-24T07:49:27.130Z,18.76
2018-08-24T07:50:27.148Z,18.72
2018-08-24T07:51:27.180Z,18.72
2018-08-24T07:52:27.207Z,18.87
2018-08-24T07:53:27.229Z,18.79
2018-08-24T07:54:27.249Z,18.79
2018-08-24T07:55:27.279Z,18.89
2018-08-24T07:56:27.300Z,18.99
2018-08-24T07:57:27.325Z,18.90
2018-08-24T07:58:27.358Z,18.90
2018-08-24T07:59:27.374Z,19.01
2018-08-24T08:00:27.400Z,19.07
2018-08-24T08:01:27.423Z,19.25
2018-08-24T08:02:27.451Z,19.20
2018-08-24T08:03:27.479Z,19.28
2018-08-24T08:04:27.493Z,19.17
2018-08-24T08:05:27.625Z,19.12
2018-08-24T08:06:27.549Z,19.15
2018-08-24T08:07:27.571Z,19.21
2018-08-24T08:08:27.605Z,19.34
2018-08-24T08:09:27.625Z,19.30
2018-08-24T08:10:27.656Z,19.27
2018-08-24T08:11:27.667Z,19.35
2018-08-24T08:12:27.755Z,19.32
2018-08-24T08:13:27.725Z,19.27
2018-08-24T08:14:27.751Z,19.42
2018-08-24T08:15:27.777Z,19.27
2018-08-24T08:16:27.797Z,19.25
2018-08-24T08:17:27.822Z,19.32
2018-08-24T08:18:27.863Z,19.35
2018-08-24T08:19:27.874Z,19.23
2018-08-24T08:20:27.897Z,19.38
2018-08-24T08:21:27.924Z,19.45
2018-08-24T08:22:27.946Z,19.40
2018-08-24T08:23:27.973Z,19.43
2018-08-24T08:24:28.009Z,19.38
2018-08-24T08:25:28.027Z,19.52
2018-08-24T08:26:28.046Z,19.61
2018-08-24T08:27:28.076Z,19.60
2018-08-24T08:28:28.097Z,19.43
2018-08-24T08:29:28.127Z,19.55
2018-08-24T08:30:28.146Z,19.61
2018-08-24T08:31:28.180Z,19.67
2018-08-24T08:32:28.206Z,19.85
2018-08-24T08:33:28.222Z,19.89
2018-08-24T08:34:28.246Z,19.87
2018-08-24T08:35:28.268Z,19.95
2018-08-24T08:36:28.296Z,19.87
2018-08-24T08:37:28.322Z,19.82
2018-08-24T08:38:28.357Z,20.05
2018-08-24T08:39:28.383Z,20.10
2018-08-24T08:40:28.405Z,20.25
2018-08-24T08:41:28.424Z,20.10
2018-08-24T08:42:28.451Z,20.12
2018-08-24T08:43:28.479Z,20.25
2018-08-24T08:44:28.503Z,20.27
2018-08-24T08:45:28.622Z,20.27
2018-08-24T08:46:28.555Z,20.20
2018-08-24T08:47:28.579Z,20.20
2018-08-24T08:48:28.605Z,20.22
2018-08-24T08:49:28.631Z,20.20
2018-08-24T08:50:28.652Z,20.08
2018-08-24T08:51:28.681Z,20.10
2018-08-24T08:52:28.705Z,20.07
2018-08-24T08:53:28.742Z,19.98
2018-08-24T08:54:28.754Z,19.89
2018-08-24T08:55:28.783Z,19.87
2018-08-24T08:56:28.807Z,19.89
2018-08-24T08:57:28.831Z,19.79
2018-08-24T08:58:28.857Z,19.86
2018-08-24T08:59:28.891Z,19.80
2018-08-24T09:00:28.905Z,19.78
2018-08-24T09:01:28.939Z,19.85
2018-08-24T09:02:28.961Z,19.83
2018-08-24T09:03:28.980Z,19.98
2018-08-24T09:04:29.012Z,20.00
2018-08-24T09:05:29.044Z,20.12
2018-08-24T09:06:29.136Z,20.25
2018-08-24T09:07:29.097Z,20.13
2018-08-24T09:08:29.110Z,20.02
2018-08-24T09:09:29.135Z,20.10
2018-08-24T09:10:29.169Z,20.15
2018-08-24T09:11:29.191Z,20.19
2018-08-24T09:12:29.217Z,20.16
2018-08-24T09:13:29.242Z,20.15
2018-08-24T09:14:29.258Z,20.10
2018-08-24T09:15:29.290Z,20.26
2018-08-24T09:16:29.319Z,20.19
2018-08-24T09:17:29.341Z,20.16
2018-08-24T09:18:29.429Z,19.92
2018-08-24T09:19:29.393Z,20.12
2018-08-24T09:20:29.416Z,20.13
2018-08-24T09:21:29.444Z,20.10
2018-08-24T09:22:29.468Z,20.05
2018-08-24T09:23:29.494Z,20.12
2018-08-24T09:24:29.519Z,20.00
2018-08-24T09:25:29.550Z,20.02
2018-08-24T09:26:29.573Z,19.89
2018-08-24T09:27:29.598Z,19.80
2018-08-24T09:28:29.624Z,19.80
2018-08-24T09:29:29.647Z,19.79
2018-08-24T09:30:29.669Z,19.90
2018-08-24T09:31:29.697Z,19.89
2018-08-24T09:32:29.750Z,19.95
2018-08-24T09:33:29.747Z,19.92
2018-08-24T09:34:29.777Z,19.80
2018-08-24T09:35:29.795Z,19.79
2018-08-24T09:36:29.820Z,19.79
2018-08-24T09:37:29.846Z,19.79
2018-08-24T09:38:29.877Z,19.70
2018-08-24T09:39:29.896Z,19.79
2018-08-24T09:40:29.916Z,19.65
2018-08-24T09:41:29.944Z,19.46
2018-08-24T09:42:29.970Z,19.25
2018-08-24T09:43:30.025Z,18.90
2018-08-24T09:44:30.026Z,18.62
2018-08-24T09:45:30.044Z,18.44
2018-08-24T09:46:30.071Z,18.21
2018-08-24T09:47:30.091Z,17.94
2018-08-24T09:48:30.124Z,17.57
2018-08-24T09:49:30.141Z,17.35
2018-08-24T09:50:30.169Z,17.18
2018-08-24T09:51:30.192Z,17.27
2018-08-24T09:52:30.227Z,17.30
2018-08-24T09:53:30.239Z,17.38
2018-08-24T09:54:30.260Z,17.28
2018-08-24T09:55:30.287Z,17.43
2018-08-24T09:56:30.305Z,17.71
2018-08-24T09:57:30.342Z,17.65
2018-08-24T09:58:30.353Z,17.63
2018-08-24T09:59:30.381Z,17.73
2018-08-24T10:00:30.404Z,17.81
2018-08-24T10:01:30.428Z,17.84
2018-08-24T10:02:30.452Z,17.77
2018-08-24T10:03:30.481Z,17.79
2018-08-24T10:04:30.496Z,17.86
2018-08-24T10:05:30.521Z,17.80
2018-08-24T10:06:30.617Z,17.89
2018-08-24T10:07:30.572Z,18.01
2018-08-24T10:08:30.590Z,18.10
2018-08-24T10:09:30.612Z,18.02
2018-08-24T10:10:30.647Z,18.20
2018-08-24T10:11:30.663Z,18.25
2018-08-24T10:12:30.724Z,18.29
2018-08-24T10:13:30.711Z,18.32
2018-08-24T10:14:30.735Z,18.23
2018-08-24T10:15:30.759Z,18.51
2018-08-24T10:16:30.781Z,18.47
2018-08-24T10:17:30.808Z,18.49
2018-08-24T10:18:30.833Z,18.41
2018-08-24T10:19:30.853Z,18.41
2018-08-24T10:20:30.881Z,18.41
2018-08-24T10:21:30.910Z,18.46
2018-08-24T10:22:30.927Z,18.71
2018-08-24T10:23:30.957Z,18.91
2018-08-24T10:24:30.977Z,19.12
2018-08-24T10:25:31.006Z,19.12
2018-08-24T10:26:31.029Z,19.13
2018-08-24T10:27:31.052Z,19.23
2018-08-24T10:28:31.075Z,19.25
2018-08-24T10:29:31.194Z,19.42
2018-08-24T10:30:31.125Z,19.43
2018-08-24T10:31:31.149Z,19.80
2018-08-24T10:32:31.178Z,19.86
2018-08-24T10:33:31.209Z,19.95
2018-08-24T10:34:31.228Z,19.98
2018-08-24T10:35:31.258Z,20.02
2018-08-24T10:36:31.279Z,20.02
2018-08-24T10:37:31.302Z,20.15
2018-08-24T10:38:31.339Z,20.27
2018-08-24T10:39:31.363Z,20.10
2018-08-24T10:40:31.379Z,19.89
2018-08-24T10:41:31.411Z,20.01
2018-08-24T10:42:31.442Z,19.79
2018-08-24T10:43:31.462Z,19.76
2018-08-24T10:44:31.496Z,19.65
2018-08-24T10:45:31.510Z,19.58
2018-08-24T10:46:31.538Z,19.68
2018-08-24T10:47:31.560Z,19.64
2018-08-24T10:48:31.588Z,19.70
2018-08-24T10:49:31.742Z,19.78
2018-08-24T10:50:31.639Z,19.89
2018-08-24T10:51:31.735Z,19.89
2018-08-24T10:52:31.695Z,19.97
2018-08-24T10:53:31.719Z,20.12
2018-08-24T10:54:31.746Z,20.00
2018-08-24T10:55:31.822Z,20.17
2018-08-24T10:56:31.797Z,20.27
2018-08-24T10:57:31.824Z,20.44
2018-08-24T10:58:31.850Z,20.73
2018-08-24T10:59:31.877Z,20.69
2018-08-24T11:00:31.897Z,20.91
2018-08-24T11:01:31.929Z,21.06
2018-08-24T11:02:31.951Z,20.88
2018-08-24T11:03:31.979Z,21.16
2018-08-24T11:04:32.010Z,21.81
2018-08-24T11:05:32.116Z,22.05
2018-08-24T11:06:32.062Z,22.99
2018-08-24T11:07:32.124Z,23.37
2018-08-24T11:08:32.118Z,23.87
2018-08-24T11:09:32.147Z,24.33
2018-08-24T11:10:32.175Z,24.49
2018-08-24T11:11:32.207Z,25.20
2018-08-24T11:12:32.232Z,25.49
2018-08-24T11:13:32.265Z,26.08
2018-08-24T11:14:32.292Z,25.97
2018-08-24T11:15:32.380Z,25.82
2018-08-24T11:16:32.359Z,26.54
2018-08-24T11:17:32.386Z,27.05
2018-08-24T11:18:33.628Z,27.31
2018-08-24T11:19:32.447Z,27.98
2018-08-24T11:20:33.284Z,27.98
2018-08-24T11:21:32.510Z,27.08
2018-08-24T11:22:32.541Z,27.55
2018-08-24T11:23:32.571Z,27.63
2018-08-24T11:24:32.605Z,27.81
2018-08-24T11:25:32.639Z,27.46
2018-08-24T11:26:34.086Z,28.32
2018-08-24T11:27:32.695Z,28.85
2018-08-24T11:28:32.767Z,28.87
2018-08-24T11:29:32.766Z,29.08
2018-08-24T11:30:32.795Z,27.46
2018-08-24T11:31:32.830Z,25.79
2018-08-24T11:32:32.872Z,23.84
2018-08-24T11:33:32.897Z,23.06
2018-08-24T11:34:32.934Z,24.60
2018-08-24T11:35:32.962Z,26.17
2018-08-24T11:36:32.992Z,26.93
2018-08-24T11:37:33.036Z,27.11
2018-08-24T11:38:33.057Z,27.42
2018-08-24T11:39:33.090Z,26.42
2018-08-24T11:40:33.123Z,25.16
2018-08-24T11:41:33.154Z,26.38
2018-08-24T11:42:33.188Z,26.69
2018-08-24T11:43:33.272Z,27.99
2018-08-24T11:44:33.258Z,29.42
2018-08-24T11:45:33.284Z,29.30
2018-08-24T11:46:33.316Z,27.01
2018-08-24T11:47:33.357Z,27.98
2018-08-24T11:48:33.379Z,26.71
2018-08-24T11:49:33.417Z,27.27
2018-08-24T11:50:33.451Z,28.42
2018-08-24T11:51:33.481Z,29.08
2018-08-24T11:52:33.512Z,29.94
2018-08-24T11:53:33.544Z,30.00
2018-08-24T11:54:33.650Z,30.04
2018-08-24T11:55:33.616Z,30.08
2018-08-24T11:56:33.648Z,30.03
2018-08-24T11:57:33.688Z,29.36
2018-08-24T11:58:33.718Z,28.48
2018-08-24T11:59:33.750Z,26.57
2018-08-24T12:00:33.789Z,26.73
2018-08-24T12:01:33.822Z,25.93
2018-08-24T12:02:33.857Z,24.94
2018-08-24T12:03:33.886Z,25.78
2018-08-24T12:04:33.927Z,25.56
2018-08-24T12:05:33.961Z,26.66
2018-08-24T12:06:33.986Z,25.75
2018-08-24T12:07:34.060Z,26.00
2018-08-24T12:08:34.049Z,26.65
2018-08-24T12:09:34.091Z,27.61
2018-08-24T12:10:34.122Z,28.13
2018-08-24T12:11:34.154Z,27.38
2018-08-24T12:12:34.282Z,27.13
2018-08-24T12:13:34.220Z,27.86
2018-08-24T12:14:34.256Z,28.51
2018-08-24T12:15:34.294Z,28.50
2018-08-24T12:16:34.319Z,28.89
2018-08-24T12:17:34.354Z,29.42
2018-08-24T12:18:34.396Z,28.32
2018-08-24T12:19:34.428Z,28.33
2018-08-24T12:20:34.462Z,28.36
2018-08-24T12:21:34.536Z,28.80
2018-08-24T12:22:34.522Z,28.40
2018-08-24T12:23:34.563Z,28.06
2018-08-24T12:25:17.152Z,28.52
2018-08-24T12:26:59.790Z,28.64
2018-08-24T12:28:00.988Z,28.17
2018-08-24T12:28:59.821Z,28.85
2018-08-24T12:29:59.849Z,28.60
2018-08-24T12:30:59.950Z,29.58
2018-08-24T12:31:59.916Z,28.85
2018-08-24T12:33:02.574Z,28.42
2018-08-24T12:33:59.990Z,29.11
2018-08-24T12:35:00.024Z,29.63
2018-08-24T12:36:00.101Z,30.36
2018-08-24T12:37:00.102Z,30.16
2018-08-24T12:39:00.181Z,29.69
2018-08-24T12:40:00.230Z,28.35
2018-08-24T12:46:00.431Z,29.42
2018-08-24T12:47:00.671Z,28.17
2018-08-24T12:53:00.884Z,30.75
2018-08-24T12:54:00.704Z,31.79
2018-08-24T12:55:00.734Z,31.94
2018-08-24T12:56:00.778Z,32.90
2018-08-24T12:57:00.815Z,32.43
2018-08-24T12:58:00.847Z,30.82
2018-08-24T12:59:00.880Z,30.34
2018-08-24T13:00:00.995Z,31.05
2018-08-24T13:01:00.954Z,31.01
2018-08-24T13:02:00.988Z,30.22
2018-08-24T13:03:01.026Z,29.07
2018-08-24T13:04:01.060Z,28.48
2018-08-24T13:05:01.096Z,29.36
2018-08-24T13:06:01.136Z,28.70